East Islip, New York
Current Conditions -  °F | °C
As of 3:56 PM on Saturday 20 Dec 2014 (Local Time) from KISP Reporting Station
Overcast Overcast  
Wind Chill: 29°   Ceiling: 2500
Heat Index: 33°   Visibility: 10mi
Dew Point: 22°   Wind: 5mph
Humidity: 64%   Direction: 340°NNW
Pressure: 30.25"   Gusts: NA
Location:  40.73°N, 73.19°W
Report Text: KISP 202056Z 34004KT 10SM OVC025 01/M06 A3025 RMK AO2 SLP242 T00061056 55001
Loading
Personal Weather Stations






























Interactive Weather Map New forecast layout! Learn more

10-Day Weather Forecast

Advertisements
Track Severe Weather on mobile